Flight Track Log - Related Links

Times and Time Zones

All times are in EDT time to prevent confusion due to time zone crossing. See the N589H flight status page for this flight to view local times or setup timezone preferences in your user account.

Time Position Orientation Groundspeed Altitude Reporting Facility
EDT Latitude Longitude Course Direction KTS MPH feet Rate Location/Type
Fri 01:03:10 AM 43.4667 -80.3500 90° East 130 150 2,000  Level Toronto Center
Fri 01:04:10 AM 43.4667 -80.3000 84° East 140 161 3,600 1,450 Climbing Toronto Center
Fri 01:05:10 AM 43.4167 -80.2833 166° South 160 184 4,900 1,350 Climbing Toronto Center
Fri 01:06:10 AM 43.3667 -80.2833 180° South 180 207 6,300 1,350 Climbing Toronto Center
Fri 01:07:10 AM 43.3167 -80.2667 166° South 200 230 7,600 1,550 Climbing Toronto Center
Fri 01:08:10 AM 43.2500 -80.2667 180° South 220 253 9,400 1,800 Climbing Toronto Center
Fri 01:09:10 AM 43.1833 -80.3000 200° South 220 253 11,200 1,750 Climbing Toronto Center
Fri 01:10:10 AM 43.1333 -80.3000 180° South 220 253 12,900 1,700 Climbing Toronto Center
Fri 01:11:10 AM 43.0667 -80.3000 180° South 230 265 14,600 1,700 Climbing Toronto Center
Fri 01:12:10 AM 43.0000 -80.3000 180° South 240 276 16,300 1,700 Climbing Toronto Center
Fri 01:13:10 AM 42.9333 -80.3167 190° South 240 276 18,000 1,500 Climbing Toronto Center
Fri 01:14:10 AM 42.8667 -80.3167 180° South 250 288 19,300 1,250 Climbing Toronto Center
Fri 01:15:10 AM 42.7833 -80.3333 188° South 270 311 20,500 1,438 Climbing Toronto Center
Fri 01:16:36 AM 42.6800 -80.3456 185° South 280 322 22,800 980 Climbing Cleveland Center
Fri 01:17:37 AM 42.5986 -80.3581 186° South 292 336 22,900 50 Climbing Cleveland Center
Fri 01:18:37 AM 42.5042 -80.3656 183° South 331 381 22,900 650 Level Cleveland Center
Fri 01:19:37 AM 42.4128 -80.3750 184° South 328 377 24,200 1,000 Climbing Cleveland Center
Fri 01:20:37 AM 42.3392 -80.3825 184° South 317 365 24,900 650 Climbing Cleveland Center
Fri 01:21:37 AM 42.2483 -80.3917 184° South 321 369 25,500 550 Climbing Cleveland Center
Fri 01:22:37 AM 42.1589 -80.4008 184° South 319 367 26,000 248 Climbing Cleveland Center
Fri 01:23:38 AM 42.0639 -80.4086 183° South 341 392 26,000  Level Cleveland Center
Fri 01:24:38 AM 41.9675 -80.4172 184° South 343 395 26,000  Level Cleveland Center
Fri 01:25:38 AM 41.8694 -80.4286 185° South 351 404 26,000  Level Cleveland Center
Fri 01:26:38 AM 41.7700 -80.4347 183° South 352 405 26,000  Level Cleveland Center
Fri 01:27:38 AM 41.6694 -80.4419 183° South 353 406 26,000 50 Level Cleveland Center
Fri 01:28:38 AM 41.5697 -80.4506 184° South 353 406 26,100 397 Climbing Cleveland Center
Fri 01:29:39 AM 41.4722 -80.4594 184° South 352 405 26,800 645 Climbing Cleveland Center
Fri 01:30:39 AM 41.3789 -80.4658 183° South 339 390 27,400 600 Climbing Cleveland Center
Fri 01:31:39 AM 41.2872 -80.4744 184° South 332 382 28,000 300 Climbing Cleveland Center
Fri 01:32:39 AM 41.1950 -80.4825 184° South 329 379 28,000  Level Cleveland Center
Fri 01:33:39 AM 41.1125 -80.4894 184° South 336 387 28,000  Level Cleveland Center
Fri 01:34:39 AM 41.0161 -80.4967 183° South 344 396 28,000  Level Cleveland Center
Fri 01:35:40 AM 40.9183 -80.5056 184° South 347 399 28,000  Level Cleveland Center
Fri 01:36:40 AM 40.8000 -80.5150 183° South 355 409 28,000  Level Cleveland Center
Fri 01:37:40 AM 40.7169 -80.5217 183° South 355 409 28,000  Level Cleveland Center
Fri 01:38:40 AM 40.6164 -80.5306 184° South 356 410 28,000  Level Cleveland Center
Fri 01:39:40 AM 40.5044 -80.5389 183° South 356 410 28,000  Level Cleveland Center
Fri 01:40:40 AM 40.4067 -80.5478 184° South 356 410 28,000  Level Cleveland Center
Fri 01:41:41 AM 40.3081 -80.5561 184° South 356 410 28,000  Level Cleveland Center
Fri 01:42:41 AM 40.2092 -80.5642 184° South 357 411 28,000  Level Cleveland Center
Fri 01:43:41 AM 40.1108 -80.5714 183° South 357 411 28,000  Level Cleveland Center
Fri 01:44:41 AM 40.0117 -80.5819 185° South 358 412 28,000  Level Cleveland Center
Fri 01:45:41 AM 39.9133 -80.5897 183° South 357 411 28,000  Level Cleveland Center
Fri 01:46:41 AM 39.8139 -80.5975 183° South 357 411 28,000  Level Cleveland Center
Fri 01:47:41 AM 39.7150 -80.6039 183° South 357 411 28,000  Level Cleveland Center
Fri 01:48:42 AM 39.6153 -80.6125 184° South 358 412 28,000  Level Cleveland Center
Fri 01:49:42 AM 39.5156 -80.6211 184° South 359 413 28,000  Level Cleveland Center
Fri 01:50:42 AM 39.4153 -80.6306 184° South 361 415 28,000  Level Cleveland Center
Fri 01:51:26 AM 39.3331 -80.6353 183° South 366 421 28,000  Level Indianapolis Center
Fri 01:52:27 AM 39.2333 -80.6447 184° South 364 419 28,000  Level Indianapolis Center
Fri 01:53:27 AM 39.1325 -80.6522 183° South 362 417 28,000  Level Indianapolis Center
Fri 01:54:27 AM 39.0314 -80.6603 184° South 362 417 28,000  Level Indianapolis Center
Fri 01:55:28 AM 38.9308 -80.6683 184° South 362 417 28,000  Level Indianapolis Center
Fri 01:56:28 AM 38.8322 -80.6764 184° South 358 412 28,000  Level Indianapolis Center
Fri 01:57:28 AM 38.7325 -80.6836 183° South 358 412 28,000  Level Indianapolis Center
Fri 01:58:29 AM 38.6339 -80.6919 184° South 357 411 28,000  Level Indianapolis Center
Fri 01:59:29 AM 38.5356 -80.7008 184° South 356 410 28,000  Level Indianapolis Center
Fri 02:00:29 AM 38.4367 -80.7083 183° South 356 410 28,000  Level Indianapolis Center
Fri 02:01:30 AM 38.3378 -80.7144 183° South 356 410 28,000  Level Indianapolis Center
Fri 02:02:30 AM 38.2386 -80.7228 184° South 356 410 28,000  Level Indianapolis Center
Fri 02:03:30 AM 38.1394 -80.7294 183° South 355 409 28,000  Level Indianapolis Center
Fri 02:04:31 AM 38.0408 -80.7369 183° South 355 409 28,000  Level Indianapolis Center
Fri 02:05:31 AM 37.9411 -80.7456 184° South 355 409 28,000  Level Indianapolis Center
Fri 02:06:31 AM 37.8425 -80.7525 183° South 355 409 28,000  Level Indianapolis Center
Fri 02:07:32 AM 37.7500 -80.7592 183° South 355 409 28,000  Level Indianapolis Center
Fri 02:08:32 AM 37.6544 -80.7669 184° South 355 409 28,000  Level Indianapolis Center
Fri 02:09:32 AM 37.5575 -80.7736 183° South 356 410 28,000  Level Indianapolis Center
Fri 02:10:33 AM 37.4400 -80.7836 184° South 363 418 28,000  Level Indianapolis Center
Fri 02:11:27 AM 37.3603 -80.7936 186° South 362 417 28,000  Level Atlanta Center
Fri 02:12:27 AM 37.2625 -80.8000 183° South 362 417 28,000  Level Atlanta Center
Fri 02:13:27 AM 37.1564 -80.8072 183° South 357 411 28,000  Level Atlanta Center
Fri 02:14:27 AM 37.0586 -80.8136 183° South 357 411 28,000  Level Atlanta Center
Fri 02:15:27 AM 36.9608 -80.8228 184° South 351 404 28,000  Level Atlanta Center
Fri 02:16:27 AM 36.8631 -80.8294 183° South 351 404 28,000  Level Atlanta Center
Fri 02:17:27 AM 36.7756 -80.8331 182° South 356 410 28,000 -100 Level Atlanta Center
Fri 02:18:27 AM 36.6758 -80.8447 185° South 356 410 27,800 -1,100 Descending Atlanta Center
Fri 02:19:27 AM 36.5736 -80.8514 183° South 366 421 25,800 -2,000 Descending Atlanta Center
Fri 02:20:27 AM 36.4739 -80.8581 183° South 366 421 23,800 -2,000 Descending Atlanta Center
Fri 02:21:27 AM 36.3739 -80.8644 183° South 366 421 21,800 -2,000 Descending Atlanta Center
Fri 02:22:27 AM 36.2781 -80.8733 184° South 361 415 19,800 -2,000 Descending Atlanta Center
Fri 02:23:27 AM 36.1803 -80.8800 183° South 361 415 17,800 -2,000 Descending Atlanta Center
Fri 02:24:27 AM 36.0908 -80.8886 184° South 343 395 15,800 -2,160 Descending Atlanta Center
Fri 02:24:42 AM 36.0575 -80.8925 185° South 326 375 15,100 -800 Descending Atlanta Center
Fri 02:25:27 AM 36.0056 -80.8944 182° South 329 379 15,000 -91 Descending Atlanta Center
Fri 02:25:48 AM 35.9681 -80.8983 185° South 294 338 15,000  Level Atlanta Center
Fri 02:26:27 AM 35.9222 -80.8975 179° South 313 360 15,000 -295 Level Atlanta Center
Fri 02:26:49 AM 35.8847 -80.9017 185° South 298 343 14,700 -1,400 Descending Atlanta Center
Fri 02:27:27 AM 35.8369 -80.9086 187° South 308 354 13,600 -2,164 Descending Atlanta Center
Fri 02:27:50 AM 35.7953 -80.9178 190° South 299 344 12,500 -2,000 Descending Atlanta Center
Fri 02:28:27 AM 35.7558 -80.9219 185° South 308 354 11,600 -2,000 Descending Atlanta Center
Fri 02:28:50 AM 35.7164 -80.9311 191° South 293 337 10,500 -2,100 Descending Atlanta Center
Fri 02:29:27 AM 35.6769 -80.9353 185° South 308 354 9,500 -1,967 Descending Atlanta Center
Fri 02:29:51 AM 35.6356 -80.9444 190° South 288 331 8,500 -2,000 Descending Atlanta Center
Fri 02:30:27 AM 35.6000 -80.9483 185° South 297 342 7,500 -1,881 Descending Atlanta Center
Fri 02:30:58 AM 35.5564 -80.9575 190° South 250 288 6,400 -2,000 Descending Atlanta Center
Fri 02:31:27 AM 35.5336 -80.9611 187° South 268 308 5,500 -2,100 Descending Atlanta Center
Fri 02:31:58 AM 35.5003 -80.9672 188° South 198 228 4,300 -1,500 Descending Atlanta Center
Fri 02:32:27 AM 35.4794 -80.9681 182° South 233 268 4,000 -295 Descending Atlanta Center
Fri 02:32:59 AM 35.4464 -80.9744 189° South 169 194 4,000  Level Atlanta Center
Fri 02:33:27 AM 35.4256 -80.9728 176° South 197 227 4,000  Level Atlanta Center
Fri 02:33:59 AM 35.3983 -80.9711 177° South 170 196 4,000 -300 Level Atlanta Center
Fri 02:34:27 AM 35.3794 -80.9719 182° South 176 203 3,700 -885 Descending Atlanta Center
Fri 02:35:00 AM 35.3522 -80.9703 177° South 166 191 3,100 -830 Descending Atlanta Center
Fri 02:36:01 AM 35.3103 -80.9617 170° South 134 154 2,400 -645 Descending Atlanta Center
Fri 02:37:01 AM 35.2769 -80.9606 178° South 114 131 1,800 -595 Descending Atlanta Center
Fri 02:38:02 AM 35.2436 -80.9567 175° South 118 136 1,200 -590 Descending Atlanta Center
Fri 02:40:00 AM 35.2137 -80.9491 180° South  Level Estimated

Login

Don't have an account? Register now (free) for customized features, flight alerts, and more!